Eveleth, MN

4:57 PM CDT on May 26, 2017 (GMT -0500)
Eveleth-Virginia Municipal

Weather History for KEVM - October, 2013

Change the Weather History Date:

Sunday, October 13, 2013

  Actual Average Record
Temperature  
Mean Temperature 42 °F -  
Max Temperature 53 °F 52 °F 64 °F (2000)
Min Temperature 30 °F 32 °F 19 °F (1993)
Degree Days  
Heating Degree Days 22    
Moisture  
Dew Point 34 °F    
Average Humidity 76    
Maximum Humidity 100    
Minimum Humidity 41    
Precipitation  
Precipitation 0.00 in - - ()
Sea Level Pressure  
Sea Level Pressure 30.30 in    
Wind  
Wind Speed 7 mph (West)    
Max Wind Speed 14 mph    
Max Gust Speed 22 mph    
Visibility 10 miles    
Events      
Averages and records for this station are not official NWS values.
T = Trace of Precipitation, MM = Missing Value Source: NWS Daily Summary

Daily Weather History Graph

Daily Weather History Graph

Search for Another Location

Airport or City:

Trip Planner

Search our weather history database for the weather conditions in past years. The results will help you decide how hot, cold, wet, or windy it might be!

Date:

Astronomy

Oct. 13, 2013 Rise Set
Actual Time 7:26 AM CDT 6:25 PM CDT
Civil Twilight 6:55 AM CDT 6:56 PM CDT
Nautical Twilight 6:19 AM CDT 7:31 PM CDT
Astronomical Twilight 5:44 AM CDT 8:07 PM CDT
Moon 3:36 PM CDT (10/13) 1:14 AM CDT (10/13)
Length of Visible Light 12h 01m
Length of Day
10h 59m
Waxing Gibbous, 69% of the Moon is Illuminated
Oct 13
Waxing Gibbous
Oct 18
Full
Oct 26
Last Quarter
Nov 3
New
Nov 9
First Quarter

Hourly Weather History & Observations

Time (CDT) Temp. Windchill Dew Point Humidity Pressure Visibility Wind Dir Wind Speed Gust Speed Precip Events Conditions
12:07 AM 44.6 °F 39.2 °F 39.2 °F 81% 30.07 in 10.0 mi West 10.4 mph 17.3 mph N/A   Overcast
12:26 AM 44.6 °F 40.2 °F 41.0 °F 87% 30.08 in 10.0 mi West 8.1 mph - N/A   Overcast
12:47 AM 44.6 °F 39.7 °F 39.2 °F 81% 30.09 in 10.0 mi WNW 9.2 mph - N/A   Overcast
1:07 AM 42.8 °F 35.8 °F 39.2 °F 87% 30.10 in 5.0 mi WNW 13.8 mph 21.9 mph N/A   Drizzle
1:26 AM 42.8 °F 37.0 °F 39.2 °F 87% 30.11 in 10.0 mi WNW 10.4 mph 17.3 mph N/A   Overcast
1:47 AM 42.8 °F 37.5 °F 39.2 °F 87% 30.12 in 10.0 mi West 9.2 mph - N/A   Overcast
2:07 AM 42.8 °F 37.0 °F 37.4 °F 81% 30.14 in 10.0 mi West 10.4 mph - N/A   Overcast
2:24 AM 42.8 °F 38.0 °F 37.4 °F 81% 30.15 in 10.0 mi WNW 8.1 mph - N/A   Overcast
2:47 AM 42.8 °F 38.0 °F 37.4 °F 81% 30.16 in 10.0 mi West 8.1 mph - N/A   Overcast
3:06 AM 42.8 °F 40.1 °F 37.4 °F 81% 30.16 in 10.0 mi West 4.6 mph - N/A   Overcast
3:27 AM 42.8 °F 38.6 °F 37.4 °F 81% 30.17 in 10.0 mi West 6.9 mph - N/A   Mostly Cloudy
3:47 AM 42.8 °F 39.3 °F 37.4 °F 81% 30.18 in 10.0 mi West 5.8 mph - N/A   Clear
4:07 AM 41.0 °F 37.1 °F 37.4 °F 87% 30.20 in 10.0 mi West 5.8 mph - N/A   Clear
4:27 AM 39.2 °F 34.2 °F 35.6 °F 87% 30.21 in 10.0 mi WNW 6.9 mph - N/A   Clear
4:47 AM 39.2 °F 34.2 °F 35.6 °F 87% 30.21 in 10.0 mi West 6.9 mph - N/A   Clear
5:07 AM 39.2 °F 34.2 °F 35.6 °F 87% 30.22 in 10.0 mi WNW 6.9 mph - N/A   Clear
5:27 AM 37.4 °F 34.9 °F 35.6 °F 93% 30.22 in 10.0 mi West 3.5 mph - N/A   Clear
5:47 AM 35.6 °F 31.7 °F 33.8 °F 93% 30.23 in 10.0 mi West 4.6 mph - N/A   Clear
6:07 AM 35.6 °F 31.7 °F 35.6 °F 100% 30.25 in 10.0 mi West 4.6 mph - N/A   Clear
6:27 AM 35.6 °F 32.8 °F 35.6 °F 100% 30.25 in 10.0 mi WNW 3.5 mph - N/A   Clear
6:47 AM 35.6 °F 32.8 °F 35.6 °F 100% 30.26 in 10.0 mi West 3.5 mph - N/A   Clear
7:07 AM 35.6 °F 31.7 °F 35.6 °F 100% 30.27 in 10.0 mi West 4.6 mph - N/A   Clear
7:27 AM 35.6 °F 31.7 °F 35.6 °F 100% 30.27 in 10.0 mi West 4.6 mph - N/A   Clear
7:47 AM 35.6 °F 29.9 °F 35.6 °F 100% 30.29 in 10.0 mi West 6.9 mph - N/A   Clear
8:06 AM 35.6 °F 29.9 °F 35.6 °F 100% 30.30 in 10.0 mi West 6.9 mph - N/A   Clear
8:27 AM 35.6 °F 30.7 °F 35.6 °F 100% 30.31 in 10.0 mi West 5.8 mph - N/A   Clear
8:47 AM 37.4 °F 32.1 °F 35.6 °F 93% 30.31 in 10.0 mi West 6.9 mph - N/A   Clear
9:07 AM 39.2 °F 34.2 °F 35.6 °F 87% 30.33 in 10.0 mi WSW 6.9 mph - N/A   Clear
9:27 AM 42.8 °F 38.6 °F 37.4 °F 81% 30.34 in 10.0 mi West 6.9 mph - N/A   Clear
9:47 AM 42.8 °F 38.6 °F 35.6 °F 76% 30.35 in 10.0 mi West 6.9 mph - N/A   Clear
10:07 AM 44.6 °F 41.4 °F 35.6 °F 71% 30.36 in 10.0 mi WSW 5.8 mph - N/A   Clear
10:27 AM 44.6 °F 41.4 °F 35.6 °F 71% 30.36 in 10.0 mi West 5.8 mph - N/A   Clear
10:47 AM 44.6 °F 42.2 °F 35.6 °F 71% 30.36 in 10.0 mi WSW 4.6 mph - N/A   Clear
11:06 AM 50.0 °F - 35.6 °F 58% 30.36 in 10.0 mi West 6.9 mph - N/A   Clear
11:27 AM 50.0 °F - 33.8 °F 54% 30.36 in 10.0 mi WSW 5.8 mph - N/A   Clear
11:47 AM 51.8 °F - 33.8 °F 50% 30.37 in 10.0 mi WSW 10.4 mph - N/A   Clear
12:06 PM 51.8 °F - 32.0 °F 47% 30.37 in 10.0 mi WSW 9.2 mph - N/A   Clear
12:27 PM 51.8 °F - 32.0 °F 47% 30.36 in 10.0 mi WSW 11.5 mph 16.1 mph N/A   Scattered Clouds
12:46 PM 51.8 °F - 32.0 °F 47% 30.36 in 10.0 mi WNW 8.1 mph 19.6 mph N/A   Mostly Cloudy
1:07 PM 51.8 °F - 32.0 °F 47% 30.36 in 10.0 mi West 11.5 mph - N/A   Scattered Clouds
1:27 PM 53.6 °F - 32.0 °F 44% 30.35 in 10.0 mi WSW 12.7 mph - N/A   Scattered Clouds
1:46 PM 53.6 °F - 32.0 °F 44% 30.35 in 10.0 mi West 13.8 mph 19.6 mph N/A   Mostly Cloudy
2:07 PM 51.8 °F - 32.0 °F 47% 30.35 in 10.0 mi West 11.5 mph 17.3 mph N/A   Mostly Cloudy
2:27 PM 51.8 °F - 32.0 °F 47% 30.35 in 10.0 mi WNW 11.5 mph 16.1 mph N/A   Scattered Clouds
2:46 PM 51.8 °F - 32.0 °F 47% 30.34 in 10.0 mi West 10.4 mph 16.1 mph N/A   Scattered Clouds
3:07 PM 51.8 °F - 32.0 °F 47% 30.35 in 10.0 mi West 11.5 mph - N/A   Scattered Clouds
3:27 PM 53.6 °F - 32.0 °F 44% 30.34 in 10.0 mi West 6.9 mph - N/A   Scattered Clouds
3:46 PM 51.8 °F - 32.0 °F 47% 30.34 in 10.0 mi West 10.4 mph - N/A   Scattered Clouds
4:07 PM 53.6 °F - 30.2 °F 41% 30.33 in 10.0 mi West 8.1 mph 16.1 mph N/A   Clear
4:26 PM 53.6 °F - 32.0 °F 44% 30.34 in 10.0 mi West 9.2 mph - N/A   Clear
4:47 PM 51.8 °F - 32.0 °F 47% 30.33 in 10.0 mi WNW 6.9 mph - N/A   Clear
5:07 PM 51.8 °F - 32.0 °F 47% 30.34 in 10.0 mi West 5.8 mph - N/A   Clear
5:26 PM 51.8 °F - 32.0 °F 47% 30.34 in 10.0 mi West 6.9 mph - N/A   Clear
5:47 PM 51.8 °F - 32.0 °F 47% 30.34 in 10.0 mi West 5.8 mph - N/A   Clear
6:06 PM 50.0 °F - 32.0 °F 50% 30.34 in 10.0 mi WSW 3.5 mph - N/A   Clear
6:27 PM 44.6 °F 42.2 °F 32.0 °F 61% 30.35 in 10.0 mi SW 4.6 mph - N/A   Clear
6:47 PM 42.8 °F - 32.0 °F 66% 30.35 in 10.0 mi Calm Calm - N/A   Clear
7:06 PM 41.0 °F - 32.0 °F 70% 30.35 in 10.0 mi Calm Calm - N/A   Clear
7:27 PM 35.6 °F - 32.0 °F 87% 30.36 in 10.0 mi Calm Calm - N/A   Clear
7:47 PM 35.6 °F - 33.8 °F 93% 30.36 in 10.0 mi Calm Calm - N/A   Clear
8:06 PM 35.6 °F - 33.8 °F 93% 30.37 in 10.0 mi Calm Calm - N/A   Clear
8:27 PM 35.6 °F - 32.0 °F 87% 30.37 in 10.0 mi Calm Calm - N/A   Clear
8:47 PM 32.0 °F - 30.2 °F 93% 30.37 in 10.0 mi Calm Calm - N/A   Clear
9:06 PM 32.0 °F - 32.0 °F 100% 30.37 in 10.0 mi Calm Calm - N/A   Clear
9:27 PM 32.0 °F - 32.0 °F 100% 30.37 in 10.0 mi Calm Calm - N/A   Clear
9:47 PM 32.0 °F - 32.0 °F 100% 30.38 in 10.0 mi Calm Calm - N/A   Clear
10:07 PM 32.0 °F - 30.2 °F 93% 30.38 in 10.0 mi Calm Calm - N/A   Clear
10:26 PM 32.0 °F - 32.0 °F 100% 30.39 in 10.0 mi Calm Calm - N/A   Clear
10:47 PM 32.0 °F - 32.0 °F 100% 30.39 in 10.0 mi Calm Calm - N/A   Clear
11:07 PM 32.0 °F - 32.0 °F 100% 30.39 in 10.0 mi Calm Calm - N/A   Clear
11:26 PM 32.0 °F - 32.0 °F 100% 30.39 in 10.0 mi Calm Calm - N/A   Clear
11:47 PM 30.2 °F - 30.2 °F 100% 30.39 in 10.0 mi Calm Calm - N/A   Clear